PMO weather

Falcone–Borsellino Airport
Palermo, Sicily, Italy

Public forecast

Using degrees Celsius for public forecast. Weather courtesy of forecast.io.

METAR (pilot weather report)

Retrieved 2019/04/25 07:20 UTC (3 minutes ago):

LICJ 250720Z 26004KT CAVOK 16/14 Q1016

TAF (pilot weather forecast)

Retrieved 2019/04/25 06:00 UTC (1 hour ago):

TAF LICJ 250500Z 2506/2606 VRB05KT 7000 NSC BECMG 2507/2509 04010KT BECMG 2517/2519 VRB05KT